Time,TemperatureF,DewpointF,PressureIn,WindDirection,WindDirectionDegrees,WindSpeedMPH,WindSpeedGustMPH,Humidity,HourlyPrecipIn,Conditions,Clouds,dailyrainin,SoftwareType,DateUTC
2013-10-06 00:01:00,63.1,58.5,30.12,ENE,64,0.0,0.0,85,0.00,,CLR,0.00,VWS V14.01,2013-10-06 04:01:00,
2013-10-06 00:02:00,63.1,58.9,30.12,ENE,64,0.0,0.0,86,0.00,,CLR,0.00,VWS V14.01,2013-10-06 04:02:00,
2013-10-06 00:05:00,62.7,58.5,30.12,ENE,64,0.0,0.0,86,0.00,,CLR,0.00,VWS V14.01,2013-10-06 04:05:00,
2013-10-06 00:10:00,62.7,58.5,30.12,ENE,64,0.0,0.0,86,0.00,,CLR,0.00,VWS V14.01,2013-10-06 04:10:00,
2013-10-06 00:15:00,62.7,58.8,30.12,ENE,64,0.0,0.0,87,0.00,,CLR,0.00,VWS V14.01,2013-10-06 04:15:00,
2013-10-06 00:20:00,62.9,58.7,30.12,ENE,64,0.0,0.0,86,0.00,,CLR,0.00,VWS V14.01,2013-10-06 04:20:00,
2013-10-06 00:25:00,62.9,58.7,30.12,ENE,64,0.0,0.0,86,0.00,,CLR,0.00,VWS V14.01,2013-10-06 04:25:00,
2013-10-06 00:30:00,62.9,58.7,30.12,ENE,64,0.0,0.0,86,0.00,,CLR,0.00,VWS V14.01,2013-10-06 04:30:00,
2013-10-06 00:35:00,62.7,58.8,30.12,ENE,64,0.0,0.0,87,0.00,,CLR,0.00,VWS V14.01,2013-10-06 04:35:00,
2013-10-06 00:40:00,62.4,58.5,30.12,ENE,64,0.0,0.0,87,0.00,,CLR,0.00,VWS V14.01,2013-10-06 04:40:00,
2013-10-06 00:45:00,61.8,58.2,30.09,ENE,64,0.0,0.0,88,0.00,,CLR,0.00,VWS V14.01,2013-10-06 04:45:00,
2013-10-06 00:50:00,62.0,58.7,30.09,ENE,64,0.0,0.0,89,0.00,,CLR,0.00,VWS V14.01,2013-10-06 04:50:00,
2013-10-06 00:55:00,62.2,58.9,30.09,ENE,64,0.0,0.0,89,0.00,,CLR,0.00,VWS V14.01,2013-10-06 04:55:00,
2013-10-06 01:00:00,62.2,58.9,30.09,ENE,64,0.0,0.0,89,0.00,,CLR,0.00,VWS V14.01,2013-10-06 05:00:00,
2013-10-06 01:05:00,62.2,58.6,30.09,ENE,64,0.0,0.0,88,0.00,,CLR,0.00,VWS V14.01,2013-10-06 05:05:00,
2013-10-06 01:10:00,62.2,58.3,30.09,ENE,64,0.0,0.0,87,0.00,,CLR,0.00,VWS V14.01,2013-10-06 05:10:00,
2013-10-06 01:15:00,62.0,58.1,30.09,ENE,64,0.0,0.0,87,0.00,,CLR,0.00,VWS V14.01,2013-10-06 05:15:00,
2013-10-06 01:20:00,62.0,58.1,30.09,ENE,64,0.0,0.0,87,0.00,,CLR,0.00,VWS V14.01,2013-10-06 05:20:00,
2013-10-06 01:25:00,61.2,57.7,30.09,ENE,64,0.0,0.0,88,0.00,,CLR,0.00,VWS V14.01,2013-10-06 05:25:00,
2013-10-06 01:30:00,61.4,58.2,30.09,ENE,64,0.0,0.0,89,0.00,,CLR,0.00,VWS V14.01,2013-10-06 05:30:00,
2013-10-06 01:36:00,61.6,58.0,30.09,ENE,64,0.0,0.0,88,0.00,,CLR,0.00,VWS V14.01,2013-10-06 05:36:00,
2013-10-06 01:41:00,61.6,57.7,30.09,ENE,64,0.0,0.0,87,0.00,,CLR,0.00,VWS V14.01,2013-10-06 05:41:00,
2013-10-06 01:46:00,61.6,57.7,30.09,ENE,64,0.0,0.0,87,0.00,,CLR,0.00,VWS V14.01,2013-10-06 05:46:00,
2013-10-06 01:51:00,61.4,57.9,30.09,ENE,64,0.0,0.0,88,0.00,,CLR,0.00,VWS V14.01,2013-10-06 05:51:00,
2013-10-06 01:56:00,61.4,57.9,30.09,ENE,64,0.0,0.0,88,0.00,,CLR,0.00,VWS V14.01,2013-10-06 05:56:00,
2013-10-06 02:01:00,61.4,57.9,30.09,ENE,64,0.0,0.0,88,0.00,,CLR,0.00,VWS V14.01,2013-10-06 06:01:00,
2013-10-06 02:06:00,61.4,57.9,30.09,ENE,64,0.0,0.0,88,0.00,,CLR,0.00,VWS V14.01,2013-10-06 06:06:00,
2013-10-06 02:11:00,61.1,57.5,30.09,ENE,64,0.0,0.0,88,0.00,,CLR,0.00,VWS V14.01,2013-10-06 06:11:00,
2013-10-06 02:16:00,60.0,56.1,30.09,ENE,64,0.0,0.0,87,0.00,,CLR,0.00,VWS V14.01,2013-10-06 06:16:00,
2013-10-06 02:21:00,59.8,56.2,30.09,ENE,64,0.0,0.0,88,0.00,,CLR,0.00,VWS V14.01,2013-10-06 06:21:00,
2013-10-06 02:26:00,59.8,56.5,30.09,ENE,64,0.0,0.0,89,0.00,,CLR,0.00,VWS V14.01,2013-10-06 06:26:00,
2013-10-06 02:31:00,60.0,57.0,30.09,ENE,64,0.0,0.0,90,0.00,,CLR,0.00,VWS V14.01,2013-10-06 06:31:00,
2013-10-06 02:36:00,60.0,57.6,30.09,ENE,64,0.0,0.0,92,0.00,,CLR,0.00,VWS V14.01,2013-10-06 06:36:00,
2013-10-06 02:41:00,60.1,57.8,30.09,ENE,64,0.0,0.0,92,0.00,,CLR,0.00,VWS V14.01,2013-10-06 06:41:00,
2013-10-06 02:47:00,60.1,57.8,30.09,ENE,64,0.0,0.0,92,0.00,,CLR,0.00,VWS V14.01,2013-10-06 06:47:00,
2013-10-06 02:52:00,60.1,57.8,30.09,ENE,64,0.0,0.0,92,0.00,,CLR,0.00,VWS V14.01,2013-10-06 06:52:00,
2013-10-06 02:57:00,60.0,57.3,30.09,ENE,64,0.0,0.0,91,0.00,,CLR,0.00,VWS V14.01,2013-10-06 06:57:00,
2013-10-06 03:02:00,60.0,57.3,30.09,ENE,64,0.0,0.0,91,0.00,,,0.00,VWS V14.01,2013-10-06 07:02:00,
2013-10-06 03:07:00,59.4,56.8,30.09,ENE,64,0.0,0.0,91,0.00,,,0.00,VWS V14.01,2013-10-06 07:07:00,
2013-10-06 03:12:00,59.0,56.4,30.09,ENE,64,0.0,0.0,91,0.00,,,0.00,VWS V14.01,2013-10-06 07:12:00,
2013-10-06 03:17:00,58.5,55.9,30.09,ENE,64,0.0,0.0,91,0.00,,,0.00,VWS V14.01,2013-10-06 07:17:00,
2013-10-06 03:22:00,57.9,55.0,30.09,ENE,64,0.0,0.0,90,0.00,,,0.00,VWS V14.01,2013-10-06 07:22:00,
2013-10-06 03:27:00,58.5,55.9,30.09,ENE,64,0.0,0.0,91,0.00,,,0.00,VWS V14.01,2013-10-06 07:27:00,
2013-10-06 03:32:00,58.7,56.0,30.09,ENE,64,0.0,0.0,91,0.00,,,0.00,VWS V14.01,2013-10-06 07:32:00,
2013-10-06 03:37:00,58.8,56.5,30.09,ENE,64,0.0,0.0,92,0.00,,,0.00,VWS V14.01,2013-10-06 07:37:00,
2013-10-06 03:42:00,58.1,55.5,30.09,ENE,64,0.0,0.0,91,0.00,,,0.00,VWS V14.01,2013-10-06 07:42:00,
2013-10-06 03:47:00,57.9,55.3,30.09,ENE,64,0.0,0.0,91,0.00,,,0.00,VWS V14.01,2013-10-06 07:47:00,
2013-10-06 03:52:00,57.7,55.4,30.09,ENE,64,0.0,0.0,92,0.00,,,0.00,VWS V14.01,2013-10-06 07:52:00,
2013-10-06 03:57:00,57.5,55.2,30.09,ENE,64,0.0,0.0,92,0.00,,,0.00,VWS V14.01,2013-10-06 07:57:00,
2013-10-06 04:02:00,57.5,55.5,30.09,ENE,64,0.0,0.0,93,0.00,,,0.00,VWS V14.01,2013-10-06 08:02:00,
2013-10-06 04:07:00,57.9,55.6,30.09,ENE,64,0.0,0.0,92,0.00,,,0.00,VWS V14.01,2013-10-06 08:07:00,
2013-10-06 04:12:00,58.1,55.8,30.09,ENE,78,0.0,0.0,92,0.00,,,0.00,VWS V14.01,2013-10-06 08:12:00,
2013-10-06 04:18:00,57.9,55.6,30.09,ENE,78,0.0,0.0,92,0.00,,,0.00,VWS V14.01,2013-10-06 08:18:00,
2013-10-06 04:23:00,57.9,55.6,30.09,ENE,78,0.0,0.0,92,0.00,,,0.00,VWS V14.01,2013-10-06 08:23:00,
2013-10-06 04:28:00,57.7,55.7,30.09,ENE,78,0.0,0.0,93,0.00,,,0.00,VWS V14.01,2013-10-06 08:28:00,
2013-10-06 04:33:00,57.5,55.5,30.09,ENE,78,0.0,0.0,93,0.00,,,0.00,VWS V14.01,2013-10-06 08:33:00,
2013-10-06 04:38:00,57.5,55.8,30.09,ENE,78,0.0,0.0,94,0.00,,,0.00,VWS V14.01,2013-10-06 08:38:00,
2013-10-06 04:43:00,57.2,55.2,30.09,ENE,78,0.0,0.0,93,0.00,,,0.00,VWS V14.01,2013-10-06 08:43:00,
2013-10-06 04:48:00,57.0,55.3,30.09,ENE,78,0.0,0.0,94,0.00,,,0.00,VWS V14.01,2013-10-06 08:48:00,
2013-10-06 04:53:00,57.0,55.6,30.09,ENE,78,0.0,0.0,95,0.00,,,0.00,VWS V14.01,2013-10-06 08:53:00,
2013-10-06 04:58:00,57.2,55.8,30.09,ENE,78,0.0,0.0,95,0.00,,,0.00,VWS V14.01,2013-10-06 08:58:00,
2013-10-06 05:03:00,57.4,56.2,30.06,ENE,78,0.0,0.0,96,0.00,,,0.00,VWS V14.01,2013-10-06 09:03:00,
2013-10-06 05:08:00,57.4,56.2,30.06,ENE,78,0.0,0.0,96,0.00,,,0.00,VWS V14.01,2013-10-06 09:08:00,
2013-10-06 05:09:00,57.4,56.2,30.06,ENE,78,0.0,0.0,96,0.00,,,0.00,VWS V14.01,2013-10-06 09:09:00,
2013-10-06 05:14:00,57.4,56.5,30.06,ENE,78,0.0,0.0,97,0.00,,,0.00,VWS V14.01,2013-10-06 09:14:00,
2013-10-06 05:19:00,57.5,56.7,30.06,ENE,78,0.0,0.0,97,0.00,,,0.00,VWS V14.01,2013-10-06 09:19:00,
2013-10-06 05:24:00,57.4,56.8,30.06,ENE,78,0.0,0.0,98,0.00,,,0.00,VWS V14.01,2013-10-06 09:24:00,
2013-10-06 05:29:00,57.4,56.8,30.06,ENE,78,0.0,0.0,98,0.00,,,0.00,VWS V14.01,2013-10-06 09:29:00,
2013-10-06 05:34:00,57.5,57.0,30.06,ENE,78,0.0,0.0,98,0.00,,,0.00,VWS V14.01,2013-10-06 09:34:00,
2013-10-06 05:39:00,57.5,57.0,30.06,ENE,78,0.0,0.0,98,0.00,,,0.00,VWS V14.01,2013-10-06 09:39:00,
2013-10-06 05:44:00,57.7,56.9,30.06,ENE,78,0.0,0.0,97,0.00,,,0.00,VWS V14.01,2013-10-06 09:44:00,
2013-10-06 05:49:00,57.7,57.2,30.06,ENE,78,0.0,0.0,98,0.00,,,0.00,VWS V14.01,2013-10-06 09:49:00,
2013-10-06 05:54:00,57.7,57.2,30.06,ENE,78,0.0,0.0,98,0.00,,,0.00,VWS V14.01,2013-10-06 09:54:00,
2013-10-06 05:59:00,57.7,57.2,30.09,ENE,78,0.0,0.0,98,0.00,,CLR,0.00,VWS V14.01,2013-10-06 09:59:00,
2013-10-06 06:04:00,57.9,57.4,30.09,ENE,78,0.0,0.0,98,0.00,,CLR,0.00,VWS V14.01,2013-10-06 10:04:00,
2013-10-06 06:09:00,57.9,57.4,30.09,ENE,78,0.0,0.0,98,0.00,,CLR,0.00,VWS V14.01,2013-10-06 10:09:00,
2013-10-06 06:14:00,57.7,57.2,30.09,ENE,78,0.0,0.0,98,0.00,,CLR,0.00,VWS V14.01,2013-10-06 10:14:00,
2013-10-06 06:19:00,57.5,57.0,30.09,ENE,78,0.0,0.0,98,0.00,,CLR,0.00,VWS V14.01,2013-10-06 10:19:00,
2013-10-06 06:24:00,57.5,57.0,30.09,ENE,78,0.0,0.0,98,0.00,,CLR,0.00,VWS V14.01,2013-10-06 10:24:00,
2013-10-06 06:29:00,57.4,56.8,30.09,ENE,78,0.0,0.0,98,0.00,,CLR,0.00,VWS V14.01,2013-10-06 10:29:00,
2013-10-06 06:34:00,57.4,56.8,30.09,ENE,78,0.0,0.0,98,0.00,,CLR,0.00,VWS V14.01,2013-10-06 10:34:00,
2013-10-06 06:39:00,57.5,57.0,30.09,ENE,78,0.0,0.0,98,0.00,,CLR,0.00,VWS V14.01,2013-10-06 10:39:00,
2013-10-06 06:45:00,57.4,56.8,30.09,ENE,78,0.0,0.0,98,0.00,,CLR,0.00,VWS V14.01,2013-10-06 10:45:00,
2013-10-06 06:50:00,57.4,56.8,30.09,ENE,78,0.0,0.0,98,0.00,,CLR,0.00,VWS V14.01,2013-10-06 10:50:00,
2013-10-06 06:55:00,57.4,56.8,30.09,NNW,337,0.0,0.0,98,0.00,,CLR,0.00,VWS V14.01,2013-10-06 10:55:00,
2013-10-06 07:00:00,57.2,56.6,30.09,NNW,337,0.0,0.0,98,0.00,,CLR,0.00,VWS V14.01,2013-10-06 11:00:00,
2013-10-06 07:05:00,57.4,56.8,30.09,NNW,337,0.0,0.0,98,0.00,,CLR,0.00,VWS V14.01,2013-10-06 11:05:00,
2013-10-06 07:10:00,57.4,56.8,30.09,ENE,78,0.0,0.0,98,0.00,,CLR,0.00,VWS V14.01,2013-10-06 11:10:00,
2013-10-06 07:15:00,57.4,56.8,30.09,ENE,78,0.0,0.0,98,0.00,,CLR,0.00,VWS V14.01,2013-10-06 11:15:00,
2013-10-06 07:20:00,57.2,56.6,30.09,NNW,336,0.0,0.0,98,0.00,,CLR,0.00,VWS V14.01,2013-10-06 11:20:00,
2013-10-06 07:25:00,57.4,56.8,30.09,NNW,336,0.0,0.0,98,0.00,,CLR,0.00,VWS V14.01,2013-10-06 11:25:00,
2013-10-06 07:30:00,57.5,57.0,30.09,NNW,336,0.0,0.0,98,0.00,,CLR,0.00,VWS V14.01,2013-10-06 11:30:00,
2013-10-06 07:35:00,57.5,57.0,30.09,NNW,336,0.0,0.0,98,0.00,,CLR,0.00,VWS V14.01,2013-10-06 11:35:00,
2013-10-06 07:40:00,57.4,56.8,30.09,NNW,336,0.0,0.0,98,0.00,,CLR,0.00,VWS V14.01,2013-10-06 11:40:00,
2013-10-06 07:45:00,57.5,57.0,30.09,NNW,336,0.0,0.0,98,0.00,,CLR,0.00,VWS V14.01,2013-10-06 11:45:00,
2013-10-06 07:50:00,57.4,56.8,30.09,NNW,336,0.0,0.0,98,0.00,,CLR,0.00,VWS V14.01,2013-10-06 11:50:00,
2013-10-06 07:55:00,57.4,56.8,30.09,NNW,336,0.0,0.0,98,0.00,,CLR,0.00,VWS V14.01,2013-10-06 11:55:00,
2013-10-06 08:00:00,57.4,56.8,30.09,NNW,336,0.0,0.0,98,0.00,,CLR,0.00,VWS V14.01,2013-10-06 12:00:00,
2013-10-06 08:06:00,57.4,56.8,30.09,NNW,336,0.0,0.0,98,0.00,,CLR,0.00,VWS V14.01,2013-10-06 12:06:00,
2013-10-06 08:11:00,57.4,56.8,30.09,NNW,336,0.0,0.0,98,0.00,,CLR,0.00,VWS V14.01,2013-10-06 12:11:00,
2013-10-06 08:16:00,57.5,57.0,30.09,NNW,336,0.0,0.0,98,0.00,,CLR,0.00,VWS V14.01,2013-10-06 12:16:00,
2013-10-06 08:21:00,57.5,57.0,30.09,NNW,336,0.0,0.0,98,0.00,,CLR,0.00,VWS V14.01,2013-10-06 12:21:00,
2013-10-06 08:26:00,57.7,57.2,30.09,NNW,336,0.0,0.0,98,0.00,,CLR,0.00,VWS V14.01,2013-10-06 12:26:00,
2013-10-06 08:31:00,57.9,57.4,30.09,NNW,336,0.0,0.0,98,0.00,,CLR,0.00,VWS V14.01,2013-10-06 12:31:00,
2013-10-06 08:36:00,57.9,57.4,30.09,NNW,338,0.0,0.0,98,0.00,,CLR,0.00,VWS V14.01,2013-10-06 12:36:00,
2013-10-06 08:41:00,57.9,57.4,30.09,East,81,0.0,0.0,98,0.00,,CLR,0.00,VWS V14.01,2013-10-06 12:41:00,
2013-10-06 08:46:00,57.9,57.4,30.09,South,178,0.0,0.0,98,0.00,,CLR,0.00,VWS V14.01,2013-10-06 12:46:00,
2013-10-06 08:51:00,58.1,57.5,30.09,South,178,0.0,0.0,98,0.00,,CLR,0.00,VWS V14.01,2013-10-06 12:51:00,
2013-10-06 08:56:00,58.3,57.7,30.09,South,178,0.0,0.0,98,0.00,,CLR,0.00,VWS V14.01,2013-10-06 12:56:00,
2013-10-06 09:01:00,58.3,57.7,30.09,South,178,0.0,0.0,98,0.00,,,0.00,VWS V14.01,2013-10-06 13:01:00,
2013-10-06 09:07:00,58.5,57.9,30.09,NW,320,0.0,0.0,98,0.00,,,0.00,VWS V14.01,2013-10-06 13:07:00,
2013-10-06 09:12:00,58.5,57.9,30.09,NNW,333,0.0,0.0,98,0.00,,,0.00,VWS V14.01,2013-10-06 13:12:00,
2013-10-06 09:17:00,58.5,57.9,30.09,NW,326,0.0,0.0,98,0.00,,,0.00,VWS V14.01,2013-10-06 13:17:00,
2013-10-06 09:22:00,58.7,58.1,30.09,NW,326,0.0,0.0,98,0.00,,,0.00,VWS V14.01,2013-10-06 13:22:00,
2013-10-06 09:27:00,58.7,58.1,30.09,NW,326,0.0,0.0,98,0.00,,,0.00,VWS V14.01,2013-10-06 13:27:00,
2013-10-06 09:32:00,58.8,58.3,30.09,NW,326,0.0,0.0,98,0.00,,,0.00,VWS V14.01,2013-10-06 13:32:00,
2013-10-06 09:37:00,59.2,58.7,30.09,WNW,300,0.0,0.0,98,0.00,,,0.00,VWS V14.01,2013-10-06 13:37:00,
2013-10-06 09:42:00,59.4,58.8,30.09,WNW,300,0.0,0.0,98,0.00,,,0.00,VWS V14.01,2013-10-06 13:42:00,
2013-10-06 09:47:00,59.6,59.0,30.09,WNW,300,0.0,0.0,98,0.00,,,0.00,VWS V14.01,2013-10-06 13:47:00,
2013-10-06 09:52:00,59.8,59.2,30.09,WNW,300,0.0,0.0,98,0.00,,,0.00,VWS V14.01,2013-10-06 13:52:00,
2013-10-06 09:57:00,60.0,59.4,30.09,WNW,300,0.0,0.0,98,0.00,,,0.00,VWS V14.01,2013-10-06 13:57:00,
2013-10-06 10:02:00,60.1,59.6,30.09,WNW,300,0.0,0.0,98,0.00,,,0.00,VWS V14.01,2013-10-06 14:02:00,
2013-10-06 10:07:00,60.5,60.0,30.09,WNW,300,0.0,0.0,98,0.00,,,0.00,VWS V14.01,2013-10-06 14:07:00,
2013-10-06 10:12:00,60.7,60.1,30.09,WNW,300,0.0,0.0,98,0.00,,,0.00,VWS V14.01,2013-10-06 14:12:00,
2013-10-06 10:17:00,60.9,60.3,30.09,WNW,300,0.0,0.0,98,0.00,,,0.00,VWS V14.01,2013-10-06 14:17:00,
2013-10-06 10:22:00,61.1,60.5,30.09,WNW,300,0.0,0.0,98,0.00,,,0.00,VWS V14.01,2013-10-06 14:22:00,
2013-10-06 10:27:00,61.2,60.7,30.09,WNW,300,0.0,0.0,98,0.00,,,0.00,VWS V14.01,2013-10-06 14:27:00,
2013-10-06 10:32:00,61.6,61.1,30.09,WNW,300,0.0,0.0,98,0.00,,,0.00,VWS V14.01,2013-10-06 14:32:00,
2013-10-06 10:38:00,62.0,61.4,30.09,WNW,300,0.0,0.0,98,0.00,,,0.00,VWS V14.01,2013-10-06 14:38:00,
2013-10-06 10:43:00,62.2,61.6,30.09,WSW,251,0.0,0.0,98,0.00,,,0.00,VWS V14.01,2013-10-06 14:43:00,
2013-10-06 10:48:00,63.1,62.5,30.09,NNW,341,0.0,0.0,98,0.00,,,0.00,VWS V14.01,2013-10-06 14:48:00,
2013-10-06 10:53:00,63.5,62.9,30.09,NW,309,0.0,0.0,98,0.00,,,0.00,VWS V14.01,2013-10-06 14:53:00,
2013-10-06 10:58:00,63.8,63.3,30.09,WSW,241,0.0,3.2,98,0.00,,,0.00,VWS V14.01,2013-10-06 14:58:00,
2013-10-06 11:03:00,64.6,64.0,30.09,SSW,202,2.5,2.7,98,0.00,,,0.00,VWS V14.01,2013-10-06 15:03:00,
2013-10-06 11:08:00,65.2,64.6,30.09,NNW,328,0.0,3.8,98,0.00,,,0.00,VWS V14.01,2013-10-06 15:08:00,
2013-10-06 11:13:00,65.7,65.1,30.09,West,264,0.0,2.7,98,0.00,,,0.00,VWS V14.01,2013-10-06 15:13:00,
2013-10-06 11:18:00,66.6,66.1,30.09,NNW,334,3.0,4.3,98,0.00,,,0.00,VWS V14.01,2013-10-06 15:18:00,
2013-10-06 11:23:00,66.8,66.2,30.09,SW,222,2.5,2.7,98,0.00,,,0.00,VWS V14.01,2013-10-06 15:23:00,
2013-10-06 11:28:00,67.6,66.7,30.09,NW,313,0.0,3.2,97,0.00,,,0.00,VWS V14.01,2013-10-06 15:28:00,
2013-10-06 11:33:00,68.3,66.5,30.06,NW,305,3.0,3.2,94,0.00,,,0.00,VWS V14.01,2013-10-06 15:33:00,
2013-10-06 11:38:00,68.7,65.9,30.06,SW,236,0.0,0.0,91,0.00,,,0.00,VWS V14.01,2013-10-06 15:38:00,
2013-10-06 11:43:00,69.2,65.5,30.06,NNW,327,3.0,4.3,88,0.00,,,0.00,VWS V14.01,2013-10-06 15:43:00,
2013-10-06 11:48:00,70.2,65.8,30.06,NW,305,4.4,4.8,86,0.00,,,0.00,VWS V14.01,2013-10-06 15:48:00,
2013-10-06 11:53:00,70.9,64.8,30.06,West,280,3.4,4.3,81,0.00,,,0.00,VWS V14.01,2013-10-06 15:53:00,
2013-10-06 11:58:00,71.4,64.6,30.06,SW,217,3.4,3.8,79,0.00,,,0.00,VWS V14.01,2013-10-06 15:58:00,
2013-10-06 12:03:00,71.8,64.2,30.06,WNW,298,3.0,3.2,77,0.00,,,0.00,VWS V14.01,2013-10-06 16:03:00,
2013-10-06 12:08:00,72.4,64.0,30.06,WNW,282,3.0,5.9,75,0.00,,,0.00,VWS V14.01,2013-10-06 16:08:00,
2013-10-06 12:13:00,72.8,63.6,30.06,West,271,3.9,4.3,73,0.00,,,0.00,VWS V14.01,2013-10-06 16:13:00,
2013-10-06 12:18:00,73.3,63.3,30.06,SE,130,3.0,4.3,71,0.00,,,0.00,VWS V14.01,2013-10-06 16:18:00,
2013-10-06 12:23:00,73.9,62.7,30.06,SE,128,4.9,6.4,68,0.00,,,0.00,VWS V14.01,2013-10-06 16:23:00,
2013-10-06 12:28:00,74.4,63.2,30.06,WSW,258,4.4,4.8,68,0.00,,,0.00,VWS V14.01,2013-10-06 16:28:00,
2013-10-06 12:33:00,74.8,62.7,30.06,South,174,4.4,7.0,66,0.00,,,0.00,VWS V14.01,2013-10-06 16:33:00,
2013-10-06 12:38:00,75.0,62.0,30.06,SW,225,6.9,7.5,64,0.00,,,0.00,VWS V14.01,2013-10-06 16:38:00,
2013-10-06 12:43:00,75.2,61.3,30.06,WSW,242,3.4,7.5,62,0.00,,,0.00,VWS V14.01,2013-10-06 16:43:00,
2013-10-06 12:48:00,75.9,59.6,30.03,SW,229,3.0,6.4,57,0.00,,,0.00,VWS V14.01,2013-10-06 16:48:00,
2013-10-06 12:53:00,75.9,60.6,30.03,South,173,3.0,4.3,59,0.00,,,0.00,VWS V14.01,2013-10-06 16:53:00,
2013-10-06 12:58:00,76.3,60.9,30.03,South,171,5.4,6.4,59,0.00,,,0.00,VWS V14.01,2013-10-06 16:58:00,
2013-10-06 13:03:00,76.1,61.2,30.03,SSW,207,3.0,3.2,60,0.00,,CLR,0.00,VWS V14.01,2013-10-06 17:03:00,
2013-10-06 13:08:00,76.1,59.8,30.03,South,179,3.9,4.8,57,0.00,,CLR,0.00,VWS V14.01,2013-10-06 17:08:00,
2013-10-06 13:13:00,76.5,60.1,30.03,SSE,162,4.4,5.4,57,0.00,,CLR,0.00,VWS V14.01,2013-10-06 17:13:00,
2013-10-06 13:19:00,77.2,61.3,30.03,ENE,76,3.0,4.8,58,0.00,,CLR,0.00,VWS V14.01,2013-10-06 17:19:00,
2013-10-06 13:24:00,77.8,60.3,30.03,SE,124,6.4,7.0,55,0.00,,CLR,0.00,VWS V14.01,2013-10-06 17:24:00,
2013-10-06 13:29:00,78.3,59.8,30.03,South,186,3.4,7.5,53,0.00,,CLR,0.00,VWS V14.01,2013-10-06 17:29:00,
2013-10-06 13:33:00,78.3,57.6,30.03,SSE,156,5.4,6.4,49,0.00,,CLR,0.00,VWS V14.01,2013-10-06 17:33:00,
2013-10-06 13:38:00,77.2,57.7,30.03,NE,53,3.9,5.9,51,0.00,,CLR,0.00,VWS V14.01,2013-10-06 17:38:00,
2013-10-06 13:43:00,77.8,58.2,30.03,SE,126,3.4,7.5,51,0.00,,CLR,0.00,VWS V14.01,2013-10-06 17:43:00,
2013-10-06 14:18:00,77.8,58.7,30.00,SE,137,0.0,0.0,52,0.00,,CLR,0.00,VWS V14.01,2013-10-06 18:18:00,
2013-10-06 14:23:00,77.4,57.9,30.00,SE,136,6.4,9.7,51,0.00,,CLR,0.00,VWS V14.01,2013-10-06 18:23:00,
2013-10-06 14:28:00,77.8,57.7,30.00,NE,38,2.5,3.2,50,0.00,,CLR,0.00,VWS V14.01,2013-10-06 18:28:00,
2013-10-06 14:33:00,78.3,58.2,30.00,NE,54,3.0,4.3,50,0.00,,SCT050,0.00,VWS V14.01,2013-10-06 18:33:00,
2013-10-06 14:38:00,78.7,57.4,30.00,South,183,3.9,4.3,48,0.00,,SCT050,0.00,VWS V14.01,2013-10-06 18:38:00,
2013-10-06 14:43:00,78.3,57.6,30.00,SSW,210,3.0,3.2,49,0.00,,SCT050,0.00,VWS V14.01,2013-10-06 18:43:00,
2013-10-06 14:48:00,79.4,58.0,29.97,SSE,168,4.4,7.5,48,0.00,,SCT050,0.00,VWS V14.01,2013-10-06 18:48:00,
2013-10-06 14:53:00,79.4,58.0,29.97,SW,218,5.9,10.5,48,0.00,,SCT050,0.00,VWS V14.01,2013-10-06 18:53:00,
2013-10-06 14:58:00,78.9,57.0,29.97,South,178,6.4,7.5,47,0.00,,SCT050,0.00,VWS V14.01,2013-10-06 18:58:00,
2013-10-06 15:03:00,77.9,56.7,29.97,ENE,60,3.4,4.8,48,0.00,,SCT070,0.00,VWS V14.01,2013-10-06 19:03:00,
2013-10-06 15:09:00,77.6,56.9,29.97,WSW,241,2.5,4.8,49,0.00,,SCT070,0.00,VWS V14.01,2013-10-06 19:09:00,
2013-10-06 15:14:00,77.4,56.2,29.97,ESE,116,2.5,3.2,48,0.00,,SCT070,0.00,VWS V14.01,2013-10-06 19:14:00,
2013-10-06 15:19:00,77.2,56.6,29.97,East,101,3.0,7.0,49,0.00,,SCT070,0.00,VWS V14.01,2013-10-06 19:19:00,
2013-10-06 15:24:00,76.8,56.2,29.97,East,90,2.5,3.2,49,0.00,,SCT070,0.00,VWS V14.01,2013-10-06 19:24:00,
2013-10-06 15:29:00,76.6,56.6,29.97,ESE,122,5.4,6.4,50,0.00,,SCT070,0.00,VWS V14.01,2013-10-06 19:29:00,
2013-10-06 15:34:00,78.3,58.2,29.97,WSW,250,2.5,4.3,50,0.00,,SCT070,0.00,VWS V14.01,2013-10-06 19:34:00,
2013-10-06 15:39:00,79.4,58.0,29.97,SSE,150,5.9,6.4,48,0.00,,SCT070,0.00,VWS V14.01,2013-10-06 19:39:00,
2013-10-06 15:44:00,80.2,58.1,29.97,SW,229,3.9,7.5,47,0.00,,SCT070,0.00,VWS V14.01,2013-10-06 19:44:00,
2013-10-06 15:49:00,80.2,57.5,29.97,South,178,5.9,9.9,46,0.00,,SCT070,0.00,VWS V14.01,2013-10-06 19:49:00,
2013-10-06 15:54:00,79.6,57.6,29.97,SE,128,5.4,9.1,47,0.00,,SCT070,0.00,VWS V14.01,2013-10-06 19:54:00,
2013-10-06 15:59:00,78.7,56.2,29.97,SE,137,3.0,4.8,46,0.00,,SCT070,0.00,VWS V14.01,2013-10-06 19:59:00,
2013-10-06 16:04:00,79.2,57.3,29.97,ESE,106,2.5,2.7,47,0.00,,SCT070,0.00,VWS V14.01,2013-10-06 20:04:00,
2013-10-06 16:09:00,80.5,57.9,29.97,SSE,156,9.6,10.5,46,0.00,,SCT070,0.00,VWS V14.01,2013-10-06 20:09:00,
2013-10-06 16:14:00,80.7,56.8,29.97,SE,140,5.4,7.0,44,0.00,,SCT070,0.00,VWS V14.01,2013-10-06 20:14:00,
2013-10-06 16:19:00,81.1,57.8,29.97,SE,128,6.4,10.5,45,0.00,,SCT070,0.00,VWS V14.01,2013-10-06 20:19:00,
2013-10-06 16:24:00,81.3,57.9,29.97,SSE,154,3.9,7.0,45,0.00,,SCT070,0.00,VWS V14.01,2013-10-06 20:24:00,
2013-10-06 16:29:00,80.3,56.5,29.97,South,173,6.4,10.5,44,0.00,,SCT070,0.00,VWS V14.01,2013-10-06 20:29:00,
2013-10-06 16:34:00,80.3,56.5,29.97,SE,144,3.9,4.3,44,0.00,,SCT070,0.00,VWS V14.01,2013-10-06 20:34:00,
2013-10-06 16:39:00,79.6,55.8,29.97,SE,127,3.9,4.3,44,0.00,,SCT070,0.00,VWS V14.01,2013-10-06 20:39:00,
2013-10-06 16:44:00,79.6,55.8,29.97,NW,315,2.5,6.4,44,0.00,,SCT070,0.00,VWS V14.01,2013-10-06 20:44:00,
2013-10-06 16:49:00,79.4,56.2,29.94,SSW,200,6.4,7.0,45,0.00,,SCT070,0.00,VWS V14.01,2013-10-06 20:49:00,
2013-10-06 16:54:00,79.6,56.4,29.94,ESE,120,8.4,9.9,45,0.00,,SCT070,0.00,VWS V14.01,2013-10-06 20:54:00,
2013-10-06 16:59:00,79.6,56.4,29.94,South,170,3.0,5.9,45,0.00,,SCT070,0.00,VWS V14.01,2013-10-06 20:59:00,
2013-10-06 17:04:00,79.1,55.3,29.94,SSE,159,6.4,13.7,44,0.00,,SCT070,0.00,VWS V14.01,2013-10-06 21:04:00,
2013-10-06 17:09:00,78.7,55.6,29.94,SSW,200,3.9,4.3,45,0.00,,SCT070,0.00,VWS V14.01,2013-10-06 21:09:00,
2013-10-06 17:15:00,78.1,55.7,29.94,South,189,3.0,7.0,46,0.00,,SCT070,0.00,VWS V14.01,2013-10-06 21:15:00,
2013-10-06 17:20:00,78.1,55.7,29.94,East,88,3.4,8.1,46,0.00,,SCT070,0.00,VWS V14.01,2013-10-06 21:20:00,
2013-10-06 17:25:00,77.6,55.2,29.94,SE,142,3.4,9.7,46,0.00,,SCT070,0.00,VWS V14.01,2013-10-06 21:25:00,
2013-10-06 17:30:00,77.0,55.3,29.94,South,184,6.9,7.5,47,0.00,,SCT070,0.00,VWS V14.01,2013-10-06 21:30:00,
2013-10-06 17:35:00,76.8,55.1,29.94,SSE,163,2.5,7.0,47,0.00,,SCT070,0.00,VWS V14.01,2013-10-06 21:35:00,
2013-10-06 17:40:00,76.6,54.9,29.94,SSE,158,3.0,7.0,47,0.00,,SCT070,0.00,VWS V14.01,2013-10-06 21:40:00,
2013-10-06 17:45:00,76.5,54.8,29.94,South,186,3.9,4.3,47,0.00,,SCT070,0.00,VWS V14.01,2013-10-06 21:45:00,
2013-10-06 17:50:00,76.1,55.6,29.94,South,184,3.0,3.2,49,0.00,,SCT070,0.00,VWS V14.01,2013-10-06 21:50:00,
2013-10-06 17:55:00,75.9,54.8,29.94,North,1,0.0,5.9,48,0.00,,SCT070,0.00,VWS V14.01,2013-10-06 21:55:00,
2013-10-06 18:00:00,75.9,55.4,29.94,South,188,6.4,10.5,49,0.00,,SCT070,0.00,VWS V14.01,2013-10-06 22:00:00,
2013-10-06 18:05:00,75.5,55.0,29.94,East,97,8.4,11.5,49,0.00,,SCT070,0.00,VWS V14.01,2013-10-06 22:05:00,
2013-10-06 18:10:00,75.3,54.9,29.94,SSW,208,2.5,6.4,49,0.00,,SCT070,0.00,VWS V14.01,2013-10-06 22:10:00,
2013-10-06 18:15:00,75.0,55.1,29.94,SSW,192,3.0,3.8,50,0.00,,SCT070,0.00,VWS V14.01,2013-10-06 22:15:00,
2013-10-06 18:20:00,75.0,55.1,29.94,South,171,3.0,7.0,50,0.00,,SCT070,0.00,VWS V14.01,2013-10-06 22:20:00,
2013-10-06 18:25:00,74.8,54.9,29.94,SSW,195,0.0,2.7,50,0.00,,SCT070,0.00,VWS V14.01,2013-10-06 22:25:00,
2013-10-06 18:30:00,74.4,55.1,29.94,North,3,3.4,3.8,51,0.00,,SCT070,0.00,VWS V14.01,2013-10-06 22:30:00,
2013-10-06 18:35:00,74.1,55.3,29.94,South,170,3.4,3.8,52,0.00,,SCT070,0.00,VWS V14.01,2013-10-06 22:35:00,
2013-10-06 18:40:00,73.9,55.7,29.94,South,184,5.4,5.9,53,0.00,,SCT070,0.00,VWS V14.01,2013-10-06 22:40:00,
2013-10-06 18:45:00,73.5,55.8,29.97,SE,145,3.0,3.2,54,0.00,,SCT070,0.00,VWS V14.01,2013-10-06 22:45:00,
2013-10-06 18:50:00,73.3,55.7,29.97,South,184,0.0,0.0,54,0.00,,SCT070,0.00,VWS V14.01,2013-10-06 22:50:00,
2013-10-06 18:55:00,73.3,56.2,29.97,SE,141,4.4,7.0,55,0.00,,SCT070,0.00,VWS V14.01,2013-10-06 22:55:00,
2013-10-06 19:00:00,72.9,55.8,29.94,SSW,199,6.9,7.5,55,0.00,,CLR,0.00,VWS V14.01,2013-10-06 23:00:00,
2013-10-06 19:05:00,72.8,56.2,29.94,SSW,192,0.0,0.0,56,0.00,,CLR,0.00,VWS V14.01,2013-10-06 23:05:00,
2013-10-06 19:10:00,72.4,56.3,29.94,SE,125,0.0,2.7,57,0.00,,CLR,0.00,VWS V14.01,2013-10-06 23:10:00,
2013-10-06 19:15:00,72.4,56.3,29.97,SE,139,3.0,5.9,57,0.00,,CLR,0.00,VWS V14.01,2013-10-06 23:15:00,
2013-10-06 19:20:00,72.0,56.4,29.97,South,187,0.0,0.0,58,0.00,,CLR,0.00,VWS V14.01,2013-10-06 23:20:00,
2013-10-06 19:25:00,71.8,56.3,29.97,SE,135,2.5,3.2,58,0.00,,CLR,0.00,VWS V14.01,2013-10-06 23:25:00,
2013-10-06 19:30:00,71.6,56.6,29.97,South,180,2.5,3.2,59,0.00,,CLR,0.00,VWS V14.01,2013-10-06 23:30:00,
2013-10-06 19:36:00,71.4,56.8,29.97,South,186,0.0,3.8,60,0.00,,CLR,0.00,VWS V14.01,2013-10-06 23:36:00,
2013-10-06 19:41:00,71.3,56.7,29.97,SSE,163,3.0,3.8,60,0.00,,CLR,0.00,VWS V14.01,2013-10-06 23:41:00,
2013-10-06 19:46:00,71.3,57.1,29.97,South,180,3.9,4.3,61,0.00,,CLR,0.00,VWS V14.01,2013-10-06 23:46:00,
2013-10-06 19:51:00,71.1,57.0,29.97,South,180,3.4,4.3,61,0.00,,CLR,0.00,VWS V14.01,2013-10-06 23:51:00,
2013-10-06 19:56:00,70.9,57.2,29.97,East,95,6.9,7.5,62,0.00,,CLR,0.00,VWS V14.01,2013-10-06 23:56:00,
2013-10-06 20:01:00,70.9,57.2,29.97,South,171,3.0,3.2,62,0.00,,CLR,0.00,VWS V14.01,2013-10-07 00:01:00,
2013-10-06 20:06:00,70.9,57.2,29.97,SSE,164,4.4,7.5,62,0.00,,CLR,0.00,VWS V14.01,2013-10-07 00:06:00,
2013-10-06 20:11:00,70.7,57.5,29.97,SSE,147,3.4,3.8,63,0.00,,CLR,0.00,VWS V14.01,2013-10-07 00:11:00,
2013-10-06 20:16:00,70.7,58.0,29.94,SSE,164,7.4,9.9,64,0.00,,CLR,0.00,VWS V14.01,2013-10-07 00:16:00,
2013-10-06 20:21:00,70.3,57.6,29.94,SSE,162,0.0,0.0,64,0.00,,CLR,0.00,VWS V14.01,2013-10-07 00:21:00,
2013-10-06 20:26:00,70.3,57.6,29.94,SW,224,2.5,6.4,64,0.00,,CLR,0.00,VWS V14.01,2013-10-07 00:26:00,
2013-10-06 20:31:00,70.3,58.0,29.94,South,169,3.0,3.8,65,0.00,,CLR,0.00,VWS V14.01,2013-10-07 00:31:00,
2013-10-06 20:36:00,70.2,57.8,29.94,South,189,0.0,3.8,65,0.00,,CLR,0.00,VWS V14.01,2013-10-07 00:36:00,
2013-10-06 20:41:00,70.0,58.1,29.94,SSW,194,3.0,3.2,66,0.00,,CLR,0.00,VWS V14.01,2013-10-07 00:41:00,
2013-10-06 20:46:00,70.2,58.3,29.94,South,180,0.0,4.3,66,0.00,,CLR,0.00,VWS V14.01,2013-10-07 00:46:00,
2013-10-06 20:51:00,69.6,57.8,29.94,NW,319,5.9,6.4,66,0.00,,CLR,0.00,VWS V14.01,2013-10-07 00:51:00,
2013-10-06 20:56:00,69.2,57.8,29.94,North,357,0.0,0.0,67,0.00,,CLR,0.00,VWS V14.01,2013-10-07 00:56:00,
2013-10-06 21:01:00,69.2,57.8,29.94,West,268,3.4,4.3,67,0.00,,CLR,0.00,VWS V14.01,2013-10-07 01:01:00,
2013-10-06 21:06:00,69.4,58.0,29.94,South,187,2.5,2.7,67,0.00,,CLR,0.00,VWS V14.01,2013-10-07 01:06:00,
2013-10-06 21:11:00,69.0,57.6,29.94,South,175,0.0,0.0,67,0.00,,CLR,0.00,VWS V14.01,2013-10-07 01:11:00,
2013-10-06 21:16:00,68.8,57.9,29.94,SSW,193,2.5,3.2,68,0.00,,CLR,0.00,VWS V14.01,2013-10-07 01:16:00,
2013-10-06 21:21:00,69.0,58.0,29.94,South,170,0.0,0.0,68,0.00,,CLR,0.00,VWS V14.01,2013-10-07 01:21:00,
2013-10-06 21:26:00,69.0,58.0,29.94,SE,130,0.0,0.0,68,0.00,,CLR,0.00,VWS V14.01,2013-10-07 01:26:00,
2013-10-06 21:31:00,68.8,58.3,29.94,West,271,0.0,0.0,69,0.00,,CLR,0.00,VWS V14.01,2013-10-07 01:31:00,
2013-10-06 21:36:00,68.7,58.1,29.94,WNW,296,0.0,0.0,69,0.00,,CLR,0.00,VWS V14.01,2013-10-07 01:36:00,
2013-10-06 21:41:00,68.7,58.1,29.94,SE,142,3.4,3.8,69,0.00,,CLR,0.00,VWS V14.01,2013-10-07 01:41:00,
2013-10-06 21:46:00,68.5,58.3,29.94,ENE,77,0.0,2.7,70,0.00,,CLR,0.00,VWS V14.01,2013-10-07 01:46:00,
2013-10-06 21:51:00,68.5,58.3,29.94,SSW,206,3.0,5.9,70,0.00,,CLR,0.00,VWS V14.01,2013-10-07 01:51:00,
2013-10-06 21:56:00,68.7,58.5,29.94,South,190,2.5,2.7,70,0.00,,CLR,0.00,VWS V14.01,2013-10-07 01:56:00,
2013-10-06 22:01:00,68.5,58.3,29.97,WNW,294,0.0,3.2,70,0.00,,CLR,0.00,VWS V14.01,2013-10-07 02:01:00,
2013-10-06 22:07:00,68.5,58.3,29.97,SSW,202,0.0,0.0,70,0.00,,CLR,0.00,VWS V14.01,2013-10-07 02:07:00,
2013-10-06 22:12:00,68.3,58.2,29.97,SSW,207,0.0,0.0,70,0.00,,CLR,0.00,VWS V14.01,2013-10-07 02:12:00,
2013-10-06 22:17:00,67.9,57.8,29.97,West,281,0.0,0.0,70,0.00,,CLR,0.00,VWS V14.01,2013-10-07 02:17:00,
2013-10-06 22:22:00,67.9,58.2,29.97,West,281,0.0,0.0,71,0.00,,CLR,0.00,VWS V14.01,2013-10-07 02:22:00,
2013-10-06 22:27:00,67.7,58.0,29.97,West,281,0.0,0.0,71,0.00,,CLR,0.00,VWS V14.01,2013-10-07 02:27:00,
2013-10-06 22:32:00,67.7,58.0,29.97,West,281,0.0,0.0,71,0.00,,CLR,0.00,VWS V14.01,2013-10-07 02:32:00,
2013-10-06 22:37:00,67.7,58.0,29.97,West,281,0.0,0.0,71,0.00,,CLR,0.00,VWS V14.01,2013-10-07 02:37:00,
2013-10-06 22:42:00,67.7,58.0,29.97,West,276,0.0,0.0,71,0.00,,CLR,0.00,VWS V14.01,2013-10-07 02:42:00,
2013-10-06 22:47:00,67.7,58.0,29.97,West,276,0.0,0.0,71,0.00,,CLR,0.00,VWS V14.01,2013-10-07 02:47:00,
2013-10-06 22:52:00,67.6,58.2,29.97,West,276,0.0,0.0,72,0.00,,CLR,0.00,VWS V14.01,2013-10-07 02:52:00,
2013-10-06 22:57:00,67.4,58.0,29.97,West,276,0.0,0.0,72,0.00,,CLR,0.00,VWS V14.01,2013-10-07 02:57:00,
2013-10-06 23:02:00,67.2,57.9,29.97,West,276,0.0,0.0,72,0.00,,CLR,0.00,VWS V14.01,2013-10-07 03:02:00,
2013-10-06 23:07:00,67.2,57.9,29.97,WNW,300,0.0,0.0,72,0.00,,CLR,0.00,VWS V14.01,2013-10-07 03:07:00,
2013-10-06 23:12:00,66.8,57.9,29.97,WNW,300,0.0,0.0,73,0.00,,CLR,0.00,VWS V14.01,2013-10-07 03:12:00,
2013-10-06 23:17:00,66.8,58.3,29.94,WNW,300,0.0,0.0,74,0.00,,CLR,0.00,VWS V14.01,2013-10-07 03:17:00,
2013-10-06 23:22:00,66.8,58.3,29.94,WNW,300,0.0,0.0,74,0.00,,CLR,0.00,VWS V14.01,2013-10-07 03:22:00,
2013-10-06 23:27:00,66.8,58.3,29.94,WNW,300,0.0,0.0,74,0.00,,CLR,0.00,VWS V14.01,2013-10-07 03:27:00,
2013-10-06 23:32:00,66.8,58.3,29.94,WNW,300,0.0,0.0,74,0.00,,CLR,0.00,VWS V14.01,2013-10-07 03:32:00,
2013-10-06 23:37:00,66.6,58.5,29.94,WNW,300,0.0,0.0,75,0.00,,CLR,0.00,VWS V14.01,2013-10-07 03:37:00,
2013-10-06 23:42:00,66.6,58.5,29.94,WNW,300,0.0,0.0,75,0.00,,CLR,0.00,VWS V14.01,2013-10-07 03:42:00,
2013-10-06 23:47:00,66.6,58.5,29.94,WNW,300,0.0,0.0,75,0.00,,CLR,0.00,VWS V14.01,2013-10-07 03:47:00,
2013-10-06 23:52:00,66.6,58.5,29.94,WNW,300,0.0,0.0,75,0.00,,CLR,0.00,VWS V14.01,2013-10-07 03:52:00,
2013-10-06 23:57:00,66.6,58.5,29.94,WNW,300,2.5,2.7,75,0.00,,CLR,0.00,VWS V14.01,2013-10-07 03:57:00,